sensor_id;sensor_type;location;lat;lon;timestamp;pressure;altitude;pressure_sealevel;temperature;humidity
71774;BME280;59607;52.130;5.430;2023-06-10T00:00:48;101584.03;;;20.51;55.03
71774;BME280;59607;52.130;5.430;2023-06-10T00:03:16;101582.41;;;20.50;55.00
71774;BME280;59607;52.130;5.430;2023-06-10T00:05:44;101573.16;;;20.46;54.78
71774;BME280;59607;52.130;5.430;2023-06-10T00:08:11;101580.34;;;20.45;54.74
71774;BME280;59607;52.130;5.430;2023-06-10T00:10:38;101583.22;;;20.44;54.80
71774;BME280;59607;52.130;5.430;2023-06-10T00:13:10;101580.19;;;20.40;54.60
71774;BME280;59607;52.130;5.430;2023-06-10T00:15:39;101593.72;;;20.39;54.18
71774;BME280;59607;52.130;5.430;2023-06-10T00:18:06;101582.44;;;20.37;54.38
71774;BME280;59607;52.130;5.430;2023-06-10T00:20:32;101584.69;;;20.33;54.41
71774;BME280;59607;52.130;5.430;2023-06-10T00:23:10;101592.28;;;20.29;54.38
71774;BME280;59607;52.130;5.430;2023-06-10T00:25:40;101589.81;;;20.28;54.09
71774;BME280;59607;52.130;5.430;2023-06-10T00:28:13;101584.72;;;20.26;53.94
71774;BME280;59607;52.130;5.430;2023-06-10T00:30:48;101593.13;;;20.23;53.79
71774;BME280;59607;52.130;5.430;2023-06-10T00:33:14;101589.66;;;20.22;53.64
71774;BME280;59607;52.130;5.430;2023-06-10T00:35:41;101589.03;;;20.20;53.00
71774;BME280;59607;52.130;5.430;2023-06-10T00:38:07;101593.13;;;20.23;52.99
71774;BME280;59607;52.130;5.430;2023-06-10T00:40:41;101591.72;;;20.20;52.90
71774;BME280;59607;52.130;5.430;2023-06-10T00:43:10;101591.91;;;20.19;52.54
71774;BME280;59607;52.130;5.430;2023-06-10T00:45:39;101586.38;;;20.20;52.67
71774;BME280;59607;52.130;5.430;2023-06-10T00:48:09;101594.59;;;20.19;52.54
71774;BME280;59607;52.130;5.430;2023-06-10T00:50:36;101596.63;;;20.17;51.99
71774;BME280;59607;52.130;5.430;2023-06-10T00:53:14;101598.66;;;20.15;52.14
71774;BME280;59607;52.130;5.430;2023-06-10T00:55:41;101592.75;;;20.13;51.91
71774;BME280;59607;52.130;5.430;2023-06-10T00:58:08;101594.81;;;20.10;51.71
71774;BME280;59607;52.130;5.430;2023-06-10T01:00:35;101594.59;;;20.12;51.70
71774;BME280;59607;52.130;5.430;2023-06-10T01:03:02;101589.25;;;20.12;51.43
71774;BME280;59607;52.130;5.430;2023-06-10T01:05:38;101593.75;;;20.12;51.41
71774;BME280;59607;52.130;5.430;2023-06-10T01:08:20;101590.50;;;20.09;51.58
71774;BME280;59607;52.130;5.430;2023-06-10T01:11:10;101596.25;;;20.06;51.68
71774;BME280;59607;52.130;5.430;2023-06-10T01:13:43;101593.81;;;20.05;51.34
71774;BME280;59607;52.130;5.430;2023-06-10T01:16:12;101592.53;;;20.01;51.80
71774;BME280;59607;52.130;5.430;2023-06-10T01:18:53;101600.53;;;20.01;51.77
71774;BME280;59607;52.130;5.430;2023-06-10T01:21:23;101609.75;;;19.98;51.82
71774;BME280;59607;52.130;5.430;2023-06-10T01:23:57;101603.81;;;19.96;51.76
71774;BME280;59607;52.130;5.430;2023-06-10T01:26:32;101606.47;;;19.96;51.65
71774;BME280;59607;52.130;5.430;2023-06-10T01:29:12;101609.75;;;19.91;52.03
71774;BME280;59607;52.130;5.430;2023-06-10T01:32:03;101602.59;;;19.92;52.29
71774;BME280;59607;52.130;5.430;2023-06-10T01:34:39;101609.34;;;19.88;52.28
71774;BME280;59607;52.130;5.430;2023-06-10T01:37:17;101606.69;;;19.81;52.56
71774;BME280;59607;52.130;5.430;2023-06-10T01:39:48;101600.75;;;19.79;52.94
71774;BME280;59607;52.130;5.430;2023-06-10T01:42:20;101602.19;;;19.75;52.75
71774;BME280;59607;52.130;5.430;2023-06-10T01:44:47;101596.66;;;19.69;53.21
71774;BME280;59607;52.130;5.430;2023-06-10T01:47:16;101600.56;;;19.67;53.26
71774;BME280;59607;52.130;5.430;2023-06-10T01:49:46;101602.59;;;19.65;53.27
71774;BME280;59607;52.130;5.430;2023-06-10T01:52:13;101600.75;;;19.65;53.47
71774;BME280;59607;52.130;5.430;2023-06-10T01:54:40;101604.03;;;19.60;53.51
71774;BME280;59607;52.130;5.430;2023-06-10T01:57:07;101603.41;;;19.58;53.58
71774;BME280;59607;52.130;5.430;2023-06-10T01:59:33;101600.13;;;19.56;53.69
71774;BME280;59607;52.130;5.430;2023-06-10T02:02:00;101603.19;;;19.53;54.31
71774;BME280;59607;52.130;5.430;2023-06-10T02:04:33;101607.31;;;19.49;54.39
71774;BME280;59607;52.130;5.430;2023-06-10T02:06:59;101606.47;;;19.48;54.57
71774;BME280;59607;52.130;5.430;2023-06-10T02:09:35;101611.19;;;19.46;54.58
71774;BME280;59607;52.130;5.430;2023-06-10T02:12:09;101608.13;;;19.43;54.89
71774;BME280;59607;52.130;5.430;2023-06-10T02:14:39;101607.72;;;19.39;54.94
71774;BME280;59607;52.130;5.430;2023-06-10T02:17:06;101598.72;;;19.33;55.12
71774;BME280;59607;52.130;5.430;2023-06-10T02:19:46;101606.47;;;19.28;55.49
71774;BME280;59607;52.130;5.430;2023-06-10T02:22:34;101609.75;;;19.23;55.95
71774;BME280;59607;52.130;5.430;2023-06-10T02:25:03;101611.16;;;19.19;56.06
71774;BME280;59607;52.130;5.430;2023-06-10T02:27:31;101616.03;;;19.16;56.48
71774;BME280;59607;52.130;5.430;2023-06-10T02:30:00;101617.47;;;19.11;56.57
71774;BME280;59607;52.130;5.430;2023-06-10T02:32:27;101623.81;;;19.10;56.66
71774;BME280;59607;52.130;5.430;2023-06-10T02:34:54;101619.88;;;19.06;56.79
71774;BME280;59607;52.130;5.430;2023-06-10T02:37:21;101629.09;;;19.04;56.91
71774;BME280;59607;52.130;5.430;2023-06-10T02:39:51;101633.97;;;19.00;57.36
71774;BME280;59607;52.130;5.430;2023-06-10T02:42:17;101621.91;;;18.97;57.70
71774;BME280;59607;52.130;5.430;2023-06-10T02:44:47;101620.47;;;18.95;57.77
71774;BME280;59607;52.130;5.430;2023-06-10T02:47:23;101621.91;;;18.91;57.97
71774;BME280;59607;52.130;5.430;2023-06-10T02:49:51;101623.09;;;18.88;58.05
71774;BME280;59607;52.130;5.430;2023-06-10T02:52:18;101620.63;;;18.86;58.29
71774;BME280;59607;52.130;5.430;2023-06-10T02:54:44;101621.88;;;18.84;58.37
71774;BME280;59607;52.130;5.430;2023-06-10T02:57:15;101622.06;;;18.82;58.65
71774;BME280;59607;52.130;5.430;2023-06-10T02:59:42;101618.78;;;18.80;58.58
71774;BME280;59607;52.130;5.430;2023-06-10T03:02:08;101621.84;;;18.77;58.90
71774;BME280;59607;52.130;5.430;2023-06-10T03:04:41;101620.41;;;18.74;58.94
71774;BME280;59607;52.130;5.430;2023-06-10T03:56:52;101637.91;;;18.55;61.66
71774;BME280;59607;52.130;5.430;2023-06-10T03:59:27;101641.78;;;18.59;61.79
71774;BME280;59607;52.130;5.430;2023-06-10T04:01:54;101640.16;;;18.58;61.87
71774;BME280;59607;52.130;5.430;2023-06-10T04:04:21;101645.28;;;18.60;62.08
71774;BME280;59607;52.130;5.430;2023-06-10T04:06:47;101647.34;;;18.65;62.07
71774;BME280;59607;52.130;5.430;2023-06-10T04:09:17;101651.63;;;18.66;62.10
71774;BME280;59607;52.130;5.430;2023-06-10T04:11:43;101645.72;;;18.70;62.00
71774;BME280;59607;52.130;5.430;2023-06-10T04:14:13;101643.88;;;18.71;62.14
71774;BME280;59607;52.130;5.430;2023-06-10T04:16:43;101644.72;;;18.71;62.27
71774;BME280;59607;52.130;5.430;2023-06-10T04:19:10;101647.19;;;18.73;62.42
71774;BME280;59607;52.130;5.430;2023-06-10T04:21:50;101643.69;;;19.21;61.39
71774;BME280;59607;52.130;5.430;2023-06-10T04:24:23;101650.69;;;20.31;58.42
71774;BME280;59607;52.130;5.430;2023-06-10T04:26:50;101648.50;;;21.26;55.71
71774;BME280;59607;52.130;5.430;2023-06-10T04:29:25;101649.47;;;21.90;53.44
71774;BME280;59607;52.130;5.430;2023-06-10T04:31:52;101641.44;;;22.53;51.87
71774;BME280;59607;52.130;5.430;2023-06-10T04:34:28;101649.00;;;22.75;51.45
71774;BME280;59607;52.130;5.430;2023-06-10T04:36:54;101649.94;;;22.99;50.47
71774;BME280;59607;52.130;5.430;2023-06-10T04:39:22;101649.75;;;23.44;49.42
71774;BME280;59607;52.130;5.430;2023-06-10T04:41:54;101649.66;;;23.62;48.58
71774;BME280;59607;52.130;5.430;2023-06-10T04:44:22;101653.75;;;23.89;48.36
71774;BME280;59607;52.130;5.430;2023-06-10T04:46:50;101658.72;;;24.09;47.96
71774;BME280;59607;52.130;5.430;2023-06-10T04:49:17;101653.34;;;24.45;46.97
71774;BME280;59607;52.130;5.430;2023-06-10T04:51:43;101654.13;;;24.99;46.17
71774;BME280;59607;52.130;5.430;2023-06-10T04:54:10;101662.75;;;25.82;44.34
71774;BME280;59607;52.130;5.430;2023-06-10T04:56:41;101653.38;;;25.84;44.42
71774;BME280;59607;52.130;5.430;2023-06-10T04:59:08;101661.59;;;25.78;44.00
71774;BME280;59607;52.130;5.430;2023-06-10T05:01:34;101666.25;;;25.48;44.77
71774;BME280;59607;52.130;5.430;2023-06-10T05:04:06;101655.22;;;26.01;43.75
71774;BME280;59607;52.130;5.430;2023-06-10T05:06:33;101659.72;;;26.35;43.30
71774;BME280;59607;52.130;5.430;2023-06-10T05:09:02;101659.16;;;26.55;42.93
71774;BME280;59607;52.130;5.430;2023-06-10T05:11:32;101663.22;;;25.96;43.51
71774;BME280;59607;52.130;5.430;2023-06-10T05:13:58;101660.94;;;26.05;43.48
71774;BME280;59607;52.130;5.430;2023-06-10T05:16:27;101658.09;;;26.34;43.37
71774;BME280;59607;52.130;5.430;2023-06-10T05:18:58;101665.25;;;27.23;41.96
71774;BME280;59607;52.130;5.430;2023-06-10T05:21:24;101661.16;;;27.53;41.19
71774;BME280;59607;52.130;5.430;2023-06-10T05:23:56;101651.00;;;27.66;40.80
71774;BME280;59607;52.130;5.430;2023-06-10T05:26:23;101662.75;;;28.36;39.61
71774;BME280;59607;52.130;5.430;2023-06-10T05:28:49;101657.56;;;28.24;39.59
71774;BME280;59607;52.130;5.430;2023-06-10T05:31:33;101661.38;;;27.46;40.69
71774;BME280;59607;52.130;5.430;2023-06-10T05:34:09;101655.38;;;28.15;39.82
71774;BME280;59607;52.130;5.430;2023-06-10T05:36:38;101656.06;;;27.90;40.24
71774;BME280;59607;52.130;5.430;2023-06-10T05:39:10;101657.66;;;27.91;39.60
71774;BME280;59607;52.130;5.430;2023-06-10T05:41:37;101665.16;;;27.45;40.76
71774;BME280;59607;52.130;5.430;2023-06-10T05:44:03;101665.31;;;28.04;40.19
71774;BME280;59607;52.130;5.430;2023-06-10T05:46:39;101666.47;;;28.29;39.74
71774;BME280;59607;52.130;5.430;2023-06-10T05:49:26;101673.94;;;28.70;39.07
71774;BME280;59607;52.130;5.430;2023-06-10T05:51:57;101671.06;;;28.24;39.06
71774;BME280;59607;52.130;5.430;2023-06-10T05:54:26;101671.16;;;27.91;40.27
71774;BME280;59607;52.130;5.430;2023-06-10T05:56:55;101675.44;;;28.35;38.88
71774;BME280;59607;52.130;5.430;2023-06-10T05:59:22;101676.09;;;28.68;39.22
71774;BME280;59607;52.130;5.430;2023-06-10T06:01:49;101680.50;;;29.22;37.69
71774;BME280;59607;52.130;5.430;2023-06-10T06:04:21;101667.53;;;28.23;39.45
71774;BME280;59607;52.130;5.430;2023-06-10T06:06:48;101667.78;;;28.16;39.48
71774;BME280;59607;52.130;5.430;2023-06-10T06:09:19;101665.75;;;28.44;38.75
71774;BME280;59607;52.130;5.430;2023-06-10T06:11:48;101671.97;;;27.91;39.38
71774;BME280;59607;52.130;5.430;2023-06-10T06:14:15;101668.28;;;28.13;39.58
71774;BME280;59607;52.130;5.430;2023-06-10T06:16:42;101672.63;;;27.71;40.11
71774;BME280;59607;52.130;5.430;2023-06-10T06:19:08;101665.78;;;27.25;41.61
71774;BME280;59607;52.130;5.430;2023-06-10T06:21:36;101676.81;;;26.68;42.29
71774;BME280;59607;52.130;5.430;2023-06-10T06:24:06;101668.84;;;25.94;44.32
71774;BME280;59607;52.130;5.430;2023-06-10T06:26:33;101678.03;;;25.30;45.69
71774;BME280;59607;52.130;5.430;2023-06-10T06:28:59;101671.69;;;25.36;45.23
71774;BME280;59607;52.130;5.430;2023-06-10T06:31:26;101672.69;;;25.00;45.73
71774;BME280;59607;52.130;5.430;2023-06-10T06:33:58;101669.06;;;24.95;46.48
71774;BME280;59607;52.130;5.430;2023-06-10T06:36:25;101671.44;;;24.91;46.09
71774;BME280;59607;52.130;5.430;2023-06-10T06:38:59;101674.19;;;24.55;47.13
71774;BME280;59607;52.130;5.430;2023-06-10T06:41:26;101673.22;;;24.73;47.39
71774;BME280;59607;52.130;5.430;2023-06-10T06:43:56;101676.75;;;24.62;47.60
71774;BME280;59607;52.130;5.430;2023-06-10T06:46:26;101665.25;;;24.37;47.39
71774;BME280;59607;52.130;5.430;2023-06-10T06:48:52;101680.03;;;24.52;47.34
71774;BME280;59607;52.130;5.430;2023-06-10T06:51:26;101672.06;;;24.16;48.29
71774;BME280;59607;52.130;5.430;2023-06-10T06:53:53;101674.38;;;24.00;48.53
71774;BME280;59607;52.130;5.430;2023-06-10T06:56:25;101672.97;;;23.86;48.66
71774;BME280;59607;52.130;5.430;2023-06-10T06:58:56;101683.53;;;23.92;48.85
71774;BME280;59607;52.130;5.430;2023-06-10T07:01:33;101678.09;;;24.11;48.87
71774;BME280;59607;52.130;5.430;2023-06-10T07:04:00;101678.66;;;24.01;49.26
71774;BME280;59607;52.130;5.430;2023-06-10T07:06:27;101677.97;;;24.06;48.80
71774;BME280;59607;52.130;5.430;2023-06-10T07:08:58;101683.09;;;23.96;48.33
71774;BME280;59607;52.130;5.430;2023-06-10T07:11:25;101674.72;;;23.92;48.68
71774;BME280;59607;52.130;5.430;2023-06-10T07:13:54;101681.56;;;23.88;48.92
71774;BME280;59607;52.130;5.430;2023-06-10T07:16:21;101690.19;;;24.14;48.42
71774;BME280;59607;52.130;5.430;2023-06-10T07:18:48;101684.97;;;24.19;48.25
71774;BME280;59607;52.130;5.430;2023-06-10T07:21:17;101684.16;;;24.31;47.61
71774;BME280;59607;52.130;5.430;2023-06-10T07:23:47;101683.25;;;24.25;48.16
71774;BME280;59607;52.130;5.430;2023-06-10T07:26:13;101688.25;;;24.21;47.46
71774;BME280;59607;52.130;5.430;2023-06-10T07:28:40;101678.00;;;24.18;47.74
71774;BME280;59607;52.130;5.430;2023-06-10T07:31:12;101687.19;;;24.22;47.25
71774;BME280;59607;52.130;5.430;2023-06-10T07:33:46;101690.00;;;24.15;47.86
71774;BME280;59607;52.130;5.430;2023-06-10T07:36:13;101677.88;;;24.25;47.44
71774;BME280;59607;52.130;5.430;2023-06-10T07:38:39;101671.78;;;24.42;47.53
71774;BME280;59607;52.130;5.430;2023-06-10T07:41:19;101685.06;;;24.36;47.79
71774;BME280;59607;52.130;5.430;2023-06-10T07:43:46;101683.25;;;24.66;47.63
71774;BME280;59607;52.130;5.430;2023-06-10T07:46:22;101687.22;;;25.05;45.96
71774;BME280;59607;52.130;5.430;2023-06-10T07:48:53;101679.47;;;25.20;46.22
71774;BME280;59607;52.130;5.430;2023-06-10T07:51:22;101686.75;;;25.54;46.30
71774;BME280;59607;52.130;5.430;2023-06-10T07:53:48;101692.38;;;25.53;45.33
71774;BME280;59607;52.130;5.430;2023-06-10T07:56:17;101694.97;;;25.47;45.41
71774;BME280;59607;52.130;5.430;2023-06-10T07:58:47;101690.72;;;25.51;45.21
71774;BME280;59607;52.130;5.430;2023-06-10T08:01:14;101694.75;;;25.20;45.88
71774;BME280;59607;52.130;5.430;2023-06-10T08:03:49;101693.06;;;25.31;46.15
71774;BME280;59607;52.130;5.430;2023-06-10T08:06:15;101696.53;;;25.43;45.92
71774;BME280;59607;52.130;5.430;2023-06-10T08:08:53;101689.53;;;25.77;45.15
71774;BME280;59607;52.130;5.430;2023-06-10T08:11:20;101687.06;;;25.92;44.74
71774;BME280;59607;52.130;5.430;2023-06-10T08:13:49;101693.69;;;25.84;44.95
71774;BME280;59607;52.130;5.430;2023-06-10T08:16:16;101685.28;;;25.98;44.83
71774;BME280;59607;52.130;5.430;2023-06-10T08:18:43;101692.13;;;26.06;44.24
71774;BME280;59607;52.130;5.430;2023-06-10T08:21:09;101687.66;;;25.94;45.21
71774;BME280;59607;52.130;5.430;2023-06-10T08:23:41;101685.50;;;26.13;44.91
71774;BME280;59607;52.130;5.430;2023-06-10T08:26:08;101682.84;;;26.36;44.00
71774;BME280;59607;52.130;5.430;2023-06-10T08:28:34;101683.09;;;26.34;43.91
71774;BME280;59607;52.130;5.430;2023-06-10T08:31:06;101683.50;;;26.43;43.98
71774;BME280;59607;52.130;5.430;2023-06-10T08:33:33;101682.25;;;26.51;44.01
71774;BME280;59607;52.130;5.430;2023-06-10T08:36:00;101682.31;;;26.56;42.08
71774;BME280;59607;52.130;5.430;2023-06-10T08:38:29;101686.19;;;26.43;43.37
71774;BME280;59607;52.130;5.430;2023-06-10T08:41:02;101687.78;;;26.67;43.12
71774;BME280;59607;52.130;5.430;2023-06-10T08:43:37;101682.50;;;26.49;43.07
71774;BME280;59607;52.130;5.430;2023-06-10T08:46:14;101687.84;;;26.72;42.87
71774;BME280;59607;52.130;5.430;2023-06-10T08:48:43;101682.03;;;26.80;42.56
71774;BME280;59607;52.130;5.430;2023-06-10T08:51:18;101686.91;;;26.83;42.61
71774;BME280;59607;52.130;5.430;2023-06-10T08:53:53;101690.72;;;27.10;41.60
71774;BME280;59607;52.130;5.430;2023-06-10T08:56:24;101678.56;;;27.07;41.78
71774;BME280;59607;52.130;5.430;2023-06-10T08:58:53;101681.56;;;27.11;41.91
71774;BME280;59607;52.130;5.430;2023-06-10T09:01:29;101686.09;;;27.38;41.71
71774;BME280;59607;52.130;5.430;2023-06-10T09:04:04;101680.28;;;27.52;41.20
71774;BME280;59607;52.130;5.430;2023-06-10T09:06:33;101685.16;;;27.55;40.60
71774;BME280;59607;52.130;5.430;2023-06-10T09:09:03;101681.63;;;27.54;40.54
71774;BME280;59607;52.130;5.430;2023-06-10T09:11:32;101682.84;;;27.69;39.86
71774;BME280;59607;52.130;5.430;2023-06-10T09:14:05;101684.09;;;27.56;39.83
71774;BME280;59607;52.130;5.430;2023-06-10T09:16:34;101679.03;;;27.65;39.94
71774;BME280;59607;52.130;5.430;2023-06-10T09:19:01;101684.59;;;27.86;39.81
71774;BME280;59607;52.130;5.430;2023-06-10T09:21:34;101682.16;;;27.84;39.71
71774;BME280;59607;52.130;5.430;2023-06-10T09:24:05;101683.91;;;28.11;39.50
71774;BME280;59607;52.130;5.430;2023-06-10T09:26:37;101674.19;;;28.00;38.78
71774;BME280;59607;52.130;5.430;2023-06-10T09:29:05;101683.09;;;28.05;38.86
71774;BME280;59607;52.130;5.430;2023-06-10T09:31:35;101682.31;;;28.10;39.26
71774;BME280;59607;52.130;5.430;2023-06-10T09:34:12;101676.78;;;28.38;38.57
71774;BME280;59607;52.130;5.430;2023-06-10T09:36:42;101672.25;;;28.54;36.84
71774;BME280;59607;52.130;5.430;2023-06-10T09:39:17;101681.63;;;28.36;36.34
71774;BME280;59607;52.130;5.430;2023-06-10T09:41:47;101676.41;;;28.18;36.50
71774;BME280;59607;52.130;5.430;2023-06-10T09:44:19;101678.06;;;28.25;36.92
71774;BME280;59607;52.130;5.430;2023-06-10T09:46:49;101679.00;;;28.51;36.88
71774;BME280;59607;52.130;5.430;2023-06-10T09:49:29;101679.28;;;28.60;37.15
71774;BME280;59607;52.130;5.430;2023-06-10T09:51:55;101679.34;;;28.81;36.72
71774;BME280;59607;52.130;5.430;2023-06-10T09:54:25;101678.00;;;28.83;36.90
71774;BME280;59607;52.130;5.430;2023-06-10T09:56:58;101673.69;;;28.82;36.01
71774;BME280;59607;52.130;5.430;2023-06-10T09:59:30;101672.34;;;28.85;36.11
71774;BME280;59607;52.130;5.430;2023-06-10T10:02:03;101674.03;;;29.12;35.39
71774;BME280;59607;52.130;5.430;2023-06-10T10:04:39;101674.81;;;28.97;34.23
71774;BME280;59607;52.130;5.430;2023-06-10T10:07:06;101672.63;;;28.94;34.83
71774;BME280;59607;52.130;5.430;2023-06-10T10:09:42;101671.59;;;29.11;34.84
71774;BME280;59607;52.130;5.430;2023-06-10T10:12:14;101670.78;;;29.15;34.90
71774;BME280;59607;52.130;5.430;2023-06-10T10:14:46;101665.94;;;29.43;34.44
71774;BME280;59607;52.130;5.430;2023-06-10T10:17:14;101662.69;;;29.47;32.53
71774;BME280;59607;52.130;5.430;2023-06-10T10:19:50;101664.84;;;29.44;33.23
71774;BME280;59607;52.130;5.430;2023-06-10T10:22:49;101661.34;;;29.44;34.11
71774;BME280;59607;52.130;5.430;2023-06-10T10:25:23;101656.22;;;29.58;33.26
71774;BME280;59607;52.130;5.430;2023-06-10T10:28:12;101663.78;;;29.66;32.58
71774;BME280;59607;52.130;5.430;2023-06-10T10:30:50;101656.44;;;29.77;31.71
71774;BME280;59607;52.130;5.430;2023-06-10T10:36:07;101650.47;;;29.80;31.47
71774;BME280;59607;52.130;5.430;2023-06-10T10:38:40;101641.25;;;29.92;32.10
71774;BME280;59607;52.130;5.430;2023-06-10T10:41:08;101649.66;;;29.85;31.87
71774;BME280;59607;52.130;5.430;2023-06-10T10:43:35;101645.50;;;30.14;31.54
71774;BME280;59607;52.130;5.430;2023-06-10T10:46:11;101639.53;;;30.27;30.41
71774;BME280;59607;52.130;5.430;2023-06-10T10:48:47;101641.47;;;30.11;30.45
71774;BME280;59607;52.130;5.430;2023-06-10T10:51:25;101644.63;;;30.34;29.47
71774;BME280;59607;52.130;5.430;2023-06-10T10:54:12;101649.03;;;30.20;29.24
71774;BME280;59607;52.130;5.430;2023-06-10T10:59:54;101636.03;;;30.22;30.32
71774;BME280;59607;52.130;5.430;2023-06-10T11:02:45;101643.97;;;30.53;29.33
71774;BME280;59607;52.130;5.430;2023-06-10T11:05:16;101639.28;;;30.69;29.00
71774;BME280;59607;52.130;5.430;2023-06-10T11:07:56;101635.41;;;30.40;29.28
71774;BME280;59607;52.130;5.430;2023-06-10T11:10:33;101635.84;;;30.53;29.24
71774;BME280;59607;52.130;5.430;2023-06-10T11:13:22;101640.53;;;30.37;29.06
71774;BME280;59607;52.130;5.430;2023-06-10T11:15:52;101627.81;;;30.42;29.37
71774;BME280;59607;52.130;5.430;2023-06-10T11:18:29;101626.13;;;30.52;30.07
71774;BME280;59607;52.130;5.430;2023-06-10T11:21:03;101628.81;;;30.57;28.19
71774;BME280;59607;52.130;5.430;2023-06-10T11:23:40;101619.66;;;30.48;29.42
71774;BME280;59607;52.130;5.430;2023-06-10T11:31:43;101615.63;;;30.85;29.33
71774;BME280;59607;52.130;5.430;2023-06-10T11:34:10;101618.28;;;30.96;29.00
71774;BME280;59607;52.130;5.430;2023-06-10T11:36:40;101621.88;;;30.86;29.27
71774;BME280;59607;52.130;5.430;2023-06-10T11:39:13;101615.59;;;30.90;28.48
71774;BME280;59607;52.130;5.430;2023-06-10T11:41:39;101614.88;;;30.79;29.02
71774;BME280;59607;52.130;5.430;2023-06-10T11:44:11;101614.59;;;30.81;29.10
71774;BME280;59607;52.130;5.430;2023-06-10T11:46:48;101611.59;;;30.83;28.99
71774;BME280;59607;52.130;5.430;2023-06-10T11:49:20;101614.47;;;30.97;29.36
71774;BME280;59607;52.130;5.430;2023-06-10T11:51:47;101610.53;;;31.13;28.57
71774;BME280;59607;52.130;5.430;2023-06-10T11:54:21;101600.31;;;31.05;27.83
71774;BME280;59607;52.130;5.430;2023-06-10T11:56:48;101605.59;;;30.91;28.27
71774;BME280;59607;52.130;5.430;2023-06-10T11:59:16;101600.72;;;30.88;28.28
71774;BME280;59607;52.130;5.430;2023-06-10T12:01:48;101605.50;;;31.31;28.52
71774;BME280;59607;52.130;5.430;2023-06-10T12:04:17;101597.25;;;31.47;28.64
71774;BME280;59607;52.130;5.430;2023-06-10T12:09:20;101599.38;;;31.20;27.97
71774;BME280;59607;52.130;5.430;2023-06-10T12:11:58;101591.69;;;31.27;28.42
71774;BME280;59607;52.130;5.430;2023-06-10T12:14:59;101577.50;;;31.11;28.93
71774;BME280;59607;52.130;5.430;2023-06-10T12:20:27;101581.91;;;31.32;28.46
71774;BME280;59607;52.130;5.430;2023-06-10T12:23:01;101570.88;;;31.23;27.94
71774;BME280;59607;52.130;5.430;2023-06-10T12:25:50;101577.72;;;31.15;28.55
71774;BME280;59607;52.130;5.430;2023-06-10T12:28:24;101569.38;;;31.11;27.40
71774;BME280;59607;52.130;5.430;2023-06-10T12:30:51;101572.56;;;31.19;27.98
71774;BME280;59607;52.130;5.430;2023-06-10T12:33:36;101574.50;;;31.43;27.92
71774;BME280;59607;52.130;5.430;2023-06-10T12:36:16;101568.78;;;31.69;28.33
71774;BME280;59607;52.130;5.430;2023-06-10T12:38:48;101572.38;;;31.64;27.29
71774;BME280;59607;52.130;5.430;2023-06-10T12:41:16;101569.09;;;31.37;26.86
71774;BME280;59607;52.130;5.430;2023-06-10T12:43:54;101580.75;;;31.43;27.49
71774;BME280;59607;52.130;5.430;2023-06-10T12:46:23;101567.34;;;31.52;26.86
71774;BME280;59607;52.130;5.430;2023-06-10T12:48:54;101564.47;;;31.43;26.78
71774;BME280;59607;52.130;5.430;2023-06-10T12:51:21;101569.72;;;31.59;27.65
71774;BME280;59607;52.130;5.430;2023-06-10T12:54:02;101573.16;;;31.89;27.46
71774;BME280;59607;52.130;5.430;2023-06-10T12:56:31;101573.06;;;31.75;27.31
71774;BME280;59607;52.130;5.430;2023-06-10T12:58:59;101569.81;;;31.73;27.07
71774;BME280;59607;52.130;5.430;2023-06-10T13:01:25;101569.75;;;31.78;26.80
71774;BME280;59607;52.130;5.430;2023-06-10T13:03:53;101570.28;;;31.80;27.01
71774;BME280;59607;52.130;5.430;2023-06-10T13:06:23;101571.38;;;31.79;26.34
71774;BME280;59607;52.130;5.430;2023-06-10T13:08:49;101573.06;;;31.50;27.08
71774;BME280;59607;52.130;5.430;2023-06-10T13:11:17;101573.97;;;31.40;26.93
71774;BME280;59607;52.130;5.430;2023-06-10T13:13:57;101553.69;;;31.62;27.58
71774;BME280;59607;52.130;5.430;2023-06-10T13:16:43;101564.59;;;31.57;27.54
71774;BME280;59607;52.130;5.430;2023-06-10T13:19:11;101554.84;;;31.56;26.85
71774;BME280;59607;52.130;5.430;2023-06-10T13:21:37;101563.09;;;31.89;27.31
71774;BME280;59607;52.130;5.430;2023-06-10T13:24:07;101551.66;;;31.73;26.66
71774;BME280;59607;52.130;5.430;2023-06-10T13:26:37;101554.41;;;31.68;27.37
71774;BME280;59607;52.130;5.430;2023-06-10T13:29:03;101543.06;;;31.66;27.16
71774;BME280;59607;52.130;5.430;2023-06-10T13:31:34;101544.66;;;31.92;26.76
71774;BME280;59607;52.130;5.430;2023-06-10T13:34:02;101548.16;;;31.92;27.21
71774;BME280;59607;52.130;5.430;2023-06-10T13:36:29;101542.88;;;31.82;27.26
71774;BME280;59607;52.130;5.430;2023-06-10T13:38:56;101544.38;;;31.69;26.89
71774;BME280;59607;52.130;5.430;2023-06-10T13:41:25;101543.41;;;31.59;26.26
71774;BME280;59607;52.130;5.430;2023-06-10T13:44:00;101534.84;;;31.71;26.50
71774;BME280;59607;52.130;5.430;2023-06-10T13:46:36;101526.22;;;31.69;26.75
71774;BME280;59607;52.130;5.430;2023-06-10T13:49:18;101532.66;;;31.98;26.71
71774;BME280;59607;52.130;5.430;2023-06-10T13:51:49;101531.19;;;31.62;27.07
71774;BME280;59607;52.130;5.430;2023-06-10T13:54:16;101533.78;;;31.72;26.60
71774;BME280;59607;52.130;5.430;2023-06-10T13:57:06;101521.81;;;31.73;26.79
71774;BME280;59607;52.130;5.430;2023-06-10T13:59:34;101524.75;;;32.01;25.63
71774;BME280;59607;52.130;5.430;2023-06-10T14:02:01;101521.72;;;32.03;25.40
71774;BME280;59607;52.130;5.430;2023-06-10T14:04:30;101521.84;;;31.93;26.15
71774;BME280;59607;52.130;5.430;2023-06-10T14:07:00;101516.31;;;32.03;26.10
71774;BME280;59607;52.130;5.430;2023-06-10T14:09:27;101521.44;;;32.05;26.24
71774;BME280;59607;52.130;5.430;2023-06-10T14:11:56;101518.72;;;32.05;25.84
71774;BME280;59607;52.130;5.430;2023-06-10T14:14:23;101527.22;;;31.98;26.05
71774;BME280;59607;52.130;5.430;2023-06-10T14:16:49;101517.47;;;31.97;26.16